sensor_id;sensor_type;location;lat;lon;timestamp;temperature;humidity
12156;DHT22;6141;49.092;8.516;2023-02-01T00:01:27;5.60;90.60
12156;DHT22;6141;49.092;8.516;2023-02-01T00:03:55;5.60;90.60
12156;DHT22;6141;49.092;8.516;2023-02-01T00:06:23;5.70;90.40
12156;DHT22;6141;49.092;8.516;2023-02-01T00:08:52;5.70;90.30
12156;DHT22;6141;49.092;8.516;2023-02-01T00:11:22;5.60;90.50
12156;DHT22;6141;49.092;8.516;2023-02-01T00:13:53;5.60;90.80
12156;DHT22;6141;49.092;8.516;2023-02-01T00:16:23;5.60;90.80
12156;DHT22;6141;49.092;8.516;2023-02-01T00:18:57;5.60;90.70
12156;DHT22;6141;49.092;8.516;2023-02-01T00:21:25;5.60;90.70
12156;DHT22;6141;49.092;8.516;2023-02-01T00:23:54;5.60;90.60
12156;DHT22;6141;49.092;8.516;2023-02-01T00:26:26;5.50;90.50
12156;DHT22;6141;49.092;8.516;2023-02-01T00:28:57;5.50;90.80
12156;DHT22;6141;49.092;8.516;2023-02-01T00:31:25;5.50;90.80
12156;DHT22;6141;49.092;8.516;2023-02-01T00:33:56;5.50;90.80
12156;DHT22;6141;49.092;8.516;2023-02-01T00:36:25;5.50;90.80
12156;DHT22;6141;49.092;8.516;2023-02-01T00:38:53;5.60;90.50
12156;DHT22;6141;49.092;8.516;2023-02-01T00:41:22;5.50;90.60
12156;DHT22;6141;49.092;8.516;2023-02-01T00:43:51;5.60;90.40
12156;DHT22;6141;49.092;8.516;2023-02-01T00:46:21;5.70;90.30
12156;DHT22;6141;49.092;8.516;2023-02-01T00:48:49;5.70;90.10
12156;DHT22;6141;49.092;8.516;2023-02-01T00:51:20;5.80;90.00
12156;DHT22;6141;49.092;8.516;2023-02-01T00:53:49;5.80;89.70
12156;DHT22;6141;49.092;8.516;2023-02-01T00:56:18;5.80;89.50
12156;DHT22;6141;49.092;8.516;2023-02-01T00:58:47;5.70;89.30
12156;DHT22;6141;49.092;8.516;2023-02-01T01:01:17;5.70;89.30
12156;DHT22;6141;49.092;8.516;2023-02-01T01:03:48;5.80;88.90
12156;DHT22;6141;49.092;8.516;2023-02-01T01:06:20;5.80;88.60
12156;DHT22;6141;49.092;8.516;2023-02-01T01:08:51;5.90;88.10
12156;DHT22;6141;49.092;8.516;2023-02-01T01:11:23;5.90;88.00
12156;DHT22;6141;49.092;8.516;2023-02-01T01:13:52;6.00;87.70
12156;DHT22;6141;49.092;8.516;2023-02-01T01:16:23;6.00;87.50
12156;DHT22;6141;49.092;8.516;2023-02-01T01:18:53;6.00;87.40
12156;DHT22;6141;49.092;8.516;2023-02-01T01:21:22;6.00;87.30
12156;DHT22;6141;49.092;8.516;2023-02-01T01:23:50;6.00;87.20
12156;DHT22;6141;49.092;8.516;2023-02-01T01:26:21;6.10;86.80
12156;DHT22;6141;49.092;8.516;2023-02-01T01:28:51;6.10;86.70
12156;DHT22;6141;49.092;8.516;2023-02-01T01:31:20;6.20;86.40
12156;DHT22;6141;49.092;8.516;2023-02-01T01:33:50;6.20;86.60
12156;DHT22;6141;49.092;8.516;2023-02-01T01:36:20;6.20;86.10
12156;DHT22;6141;49.092;8.516;2023-02-01T01:38:48;6.30;86.10
12156;DHT22;6141;49.092;8.516;2023-02-01T01:41:19;6.40;85.00
12156;DHT22;6141;49.092;8.516;2023-02-01T01:43:51;6.50;84.70
12156;DHT22;6141;49.092;8.516;2023-02-01T01:46:24;6.50;84.00
12156;DHT22;6141;49.092;8.516;2023-02-01T01:48:58;6.50;83.80
12156;DHT22;6141;49.092;8.516;2023-02-01T01:51:32;6.40;84.50
12156;DHT22;6141;49.092;8.516;2023-02-01T01:54:06;6.40;84.90
12156;DHT22;6141;49.092;8.516;2023-02-01T01:56:36;6.40;84.70
12156;DHT22;6141;49.092;8.516;2023-02-01T01:59:05;6.40;84.60
12156;DHT22;6141;49.092;8.516;2023-02-01T02:01:35;6.30;84.30
12156;DHT22;6141;49.092;8.516;2023-02-01T02:04:03;6.40;84.10
12156;DHT22;6141;49.092;8.516;2023-02-01T02:06:42;6.40;84.20
12156;DHT22;6141;49.092;8.516;2023-02-01T02:09:15;6.40;83.70
12156;DHT22;6141;49.092;8.516;2023-02-01T02:11:43;6.30;84.60
12156;DHT22;6141;49.092;8.516;2023-02-01T02:14:15;6.30;84.70
12156;DHT22;6141;49.092;8.516;2023-02-01T02:16:58;6.30;84.70
12156;DHT22;6141;49.092;8.516;2023-02-01T02:19:55;6.30;84.90
12156;DHT22;6141;49.092;8.516;2023-02-01T02:28:53;6.40;84.20
12156;DHT22;6141;49.092;8.516;2023-02-01T02:31:40;6.30;84.60
12156;DHT22;6141;49.092;8.516;2023-02-01T02:34:19;6.40;83.70
12156;DHT22;6141;49.092;8.516;2023-02-01T02:36:59;6.50;83.80
12156;DHT22;6141;49.092;8.516;2023-02-01T02:39:39;6.40;83.70
12156;DHT22;6141;49.092;8.516;2023-02-01T02:42:12;6.30;85.20
12156;DHT22;6141;49.092;8.516;2023-02-01T02:45:03;6.30;84.90
12156;DHT22;6141;49.092;8.516;2023-02-01T02:48:00;6.30;84.90
12156;DHT22;6141;49.092;8.516;2023-02-01T02:50:35;6.30;85.10
12156;DHT22;6141;49.092;8.516;2023-02-01T02:53:27;6.30;84.60
12156;DHT22;6141;49.092;8.516;2023-02-01T02:56:23;6.30;84.80
12156;DHT22;6141;49.092;8.516;2023-02-01T02:59:14;6.20;85.20
12156;DHT22;6141;49.092;8.516;2023-02-01T03:02:01;6.20;85.20
12156;DHT22;6141;49.092;8.516;2023-02-01T03:04:52;6.20;85.40
12156;DHT22;6141;49.092;8.516;2023-02-01T03:07:53;6.20;85.50
12156;DHT22;6141;49.092;8.516;2023-02-01T03:10:30;6.30;85.60
12156;DHT22;6141;49.092;8.516;2023-02-01T03:13:04;6.20;85.60
12156;DHT22;6141;49.092;8.516;2023-02-01T03:15:39;6.20;86.10
12156;DHT22;6141;49.092;8.516;2023-02-01T03:18:14;6.10;86.10
12156;DHT22;6141;49.092;8.516;2023-02-01T03:20:46;6.10;86.60
12156;DHT22;6141;49.092;8.516;2023-02-01T03:23:21;6.20;86.20
12156;DHT22;6141;49.092;8.516;2023-02-01T03:25:52;6.10;86.60
12156;DHT22;6141;49.092;8.516;2023-02-01T03:28:23;6.10;86.60
12156;DHT22;6141;49.092;8.516;2023-02-01T03:30:53;6.10;86.70
12156;DHT22;6141;49.092;8.516;2023-02-01T03:33:23;6.10;87.40
12156;DHT22;6141;49.092;8.516;2023-02-01T03:36:05;6.00;87.90
12156;DHT22;6141;49.092;8.516;2023-02-01T03:38:42;6.00;88.50
12156;DHT22;6141;49.092;8.516;2023-02-01T03:41:18;5.90;88.70
12156;DHT22;6141;49.092;8.516;2023-02-01T03:43:52;5.80;89.30
12156;DHT22;6141;49.092;8.516;2023-02-01T03:46:28;5.80;89.60
12156;DHT22;6141;49.092;8.516;2023-02-01T03:49:05;5.90;89.40
12156;DHT22;6141;49.092;8.516;2023-02-01T03:51:35;5.90;89.30
12156;DHT22;6141;49.092;8.516;2023-02-01T03:54:10;5.90;89.00
12156;DHT22;6141;49.092;8.516;2023-02-01T03:56:42;5.90;89.10
12156;DHT22;6141;49.092;8.516;2023-02-01T03:59:12;6.00;88.70
12156;DHT22;6141;49.092;8.516;2023-02-01T04:01:41;5.90;88.60
12156;DHT22;6141;49.092;8.516;2023-02-01T04:04:10;5.90;88.60
12156;DHT22;6141;49.092;8.516;2023-02-01T04:06:50;5.90;88.70
12156;DHT22;6141;49.092;8.516;2023-02-01T04:09:21;6.00;88.80
12156;DHT22;6141;49.092;8.516;2023-02-01T04:11:49;6.00;89.80
12156;DHT22;6141;49.092;8.516;2023-02-01T04:14:18;6.00;90.30
12156;DHT22;6141;49.092;8.516;2023-02-01T04:16:46;6.00;90.20
12156;DHT22;6141;49.092;8.516;2023-02-01T04:19:15;6.00;90.30
12156;DHT22;6141;49.092;8.516;2023-02-01T04:21:43;6.00;90.10
12156;DHT22;6141;49.092;8.516;2023-02-01T04:24:11;6.00;90.40
12156;DHT22;6141;49.092;8.516;2023-02-01T04:26:41;6.10;90.10
12156;DHT22;6141;49.092;8.516;2023-02-01T04:29:11;6.10;90.00
12156;DHT22;6141;49.092;8.516;2023-02-01T04:31:40;6.00;90.20
12156;DHT22;6141;49.092;8.516;2023-02-01T04:34:08;6.00;90.00
12156;DHT22;6141;49.092;8.516;2023-02-01T04:36:36;6.00;90.30
12156;DHT22;6141;49.092;8.516;2023-02-01T04:39:05;6.00;90.10
12156;DHT22;6141;49.092;8.516;2023-02-01T04:41:33;6.10;89.60
12156;DHT22;6141;49.092;8.516;2023-02-01T04:44:03;6.00;89.90
12156;DHT22;6141;49.092;8.516;2023-02-01T04:46:31;6.10;90.40
12156;DHT22;6141;49.092;8.516;2023-02-01T04:48:59;6.00;90.90
12156;DHT22;6141;49.092;8.516;2023-02-01T04:51:28;6.00;91.20
12156;DHT22;6141;49.092;8.516;2023-02-01T04:53:57;6.00;91.60
12156;DHT22;6141;49.092;8.516;2023-02-01T04:56:25;6.00;91.70
12156;DHT22;6141;49.092;8.516;2023-02-01T04:58:53;6.00;91.40
12156;DHT22;6141;49.092;8.516;2023-02-01T05:01:24;6.00;91.40
12156;DHT22;6141;49.092;8.516;2023-02-01T05:03:53;6.00;91.50
12156;DHT22;6141;49.092;8.516;2023-02-01T05:06:22;6.00;91.40
12156;DHT22;6141;49.092;8.516;2023-02-01T05:08:51;6.00;91.50
12156;DHT22;6141;49.092;8.516;2023-02-01T05:11:19;6.00;91.80
12156;DHT22;6141;49.092;8.516;2023-02-01T05:14:05;5.90;92.00
12156;DHT22;6141;49.092;8.516;2023-02-01T05:16:34;5.90;91.80
12156;DHT22;6141;49.092;8.516;2023-02-01T05:19:03;5.90;91.70
12156;DHT22;6141;49.092;8.516;2023-02-01T05:21:31;5.90;91.70
12156;DHT22;6141;49.092;8.516;2023-02-01T05:23:59;5.90;91.80
12156;DHT22;6141;49.092;8.516;2023-02-01T05:26:43;5.90;91.60
12156;DHT22;6141;49.092;8.516;2023-02-01T05:29:12;5.80;91.70
12156;DHT22;6141;49.092;8.516;2023-02-01T05:31:41;5.90;91.50
12156;DHT22;6141;49.092;8.516;2023-02-01T05:34:12;5.70;91.70
12156;DHT22;6141;49.092;8.516;2023-02-01T05:36:40;5.80;91.70
12156;DHT22;6141;49.092;8.516;2023-02-01T05:39:08;5.80;91.60
12156;DHT22;6141;49.092;8.516;2023-02-01T05:41:37;5.80;91.70
12156;DHT22;6141;49.092;8.516;2023-02-01T05:44:06;5.80;91.80
12156;DHT22;6141;49.092;8.516;2023-02-01T05:46:36;5.80;91.70
12156;DHT22;6141;49.092;8.516;2023-02-01T05:49:05;5.80;91.60
12156;DHT22;6141;49.092;8.516;2023-02-01T05:51:34;5.70;91.70
12156;DHT22;6141;49.092;8.516;2023-02-01T05:54:03;5.70;91.80
12156;DHT22;6141;49.092;8.516;2023-02-01T05:56:31;5.70;92.00
12156;DHT22;6141;49.092;8.516;2023-02-01T05:58:59;5.80;91.80
12156;DHT22;6141;49.092;8.516;2023-02-01T06:01:30;5.80;91.80
12156;DHT22;6141;49.092;8.516;2023-02-01T06:03:58;5.70;91.90
12156;DHT22;6141;49.092;8.516;2023-02-01T06:06:28;5.70;92.60
12156;DHT22;6141;49.092;8.516;2023-02-01T06:08:56;5.70;92.60
12156;DHT22;6141;49.092;8.516;2023-02-01T06:11:25;5.80;92.60
12156;DHT22;6141;49.092;8.516;2023-02-01T06:14:00;5.80;92.50
12156;DHT22;6141;49.092;8.516;2023-02-01T06:16:28;5.80;92.60
12156;DHT22;6141;49.092;8.516;2023-02-01T06:18:56;5.80;92.70
12156;DHT22;6141;49.092;8.516;2023-02-01T06:21:25;5.90;92.30
12156;DHT22;6141;49.092;8.516;2023-02-01T06:23:55;5.90;92.40
12156;DHT22;6141;49.092;8.516;2023-02-01T06:26:25;6.00;92.30
12156;DHT22;6141;49.092;8.516;2023-02-01T06:28:55;6.10;92.30
12156;DHT22;6141;49.092;8.516;2023-02-01T06:31:24;6.10;91.70
12156;DHT22;6141;49.092;8.516;2023-02-01T06:33:53;6.00;91.80
12156;DHT22;6141;49.092;8.516;2023-02-01T06:36:21;6.00;92.00
12156;DHT22;6141;49.092;8.516;2023-02-01T06:38:50;6.00;92.20
12156;DHT22;6141;49.092;8.516;2023-02-01T06:41:20;6.10;92.10
12156;DHT22;6141;49.092;8.516;2023-02-01T06:43:48;6.10;91.80
12156;DHT22;6141;49.092;8.516;2023-02-01T06:46:17;6.10;91.80
12156;DHT22;6141;49.092;8.516;2023-02-01T06:48:45;6.20;91.60
12156;DHT22;6141;49.092;8.516;2023-02-01T06:51:22;6.10;91.70
12156;DHT22;6141;49.092;8.516;2023-02-01T06:53:51;6.30;91.50
12156;DHT22;6141;49.092;8.516;2023-02-01T06:56:21;6.30;91.10
12156;DHT22;6141;49.092;8.516;2023-02-01T06:58:49;6.40;91.10
12156;DHT22;6141;49.092;8.516;2023-02-01T07:01:18;6.30;91.10
12156;DHT22;6141;49.092;8.516;2023-02-01T07:03:48;6.30;91.10
12156;DHT22;6141;49.092;8.516;2023-02-01T07:06:18;6.10;91.20
12156;DHT22;6141;49.092;8.516;2023-02-01T07:08:46;6.10;91.80
12156;DHT22;6141;49.092;8.516;2023-02-01T07:11:17;6.00;92.30
12156;DHT22;6141;49.092;8.516;2023-02-01T07:13:47;6.20;91.90
12156;DHT22;6141;49.092;8.516;2023-02-01T07:16:17;6.20;91.80
12156;DHT22;6141;49.092;8.516;2023-02-01T07:18:47;6.10;92.00
12156;DHT22;6141;49.092;8.516;2023-02-01T07:21:15;6.10;92.30
12156;DHT22;6141;49.092;8.516;2023-02-01T07:23:44;6.10;92.70
12156;DHT22;6141;49.092;8.516;2023-02-01T07:26:14;6.10;92.70
12156;DHT22;6141;49.092;8.516;2023-02-01T07:28:43;6.00;92.60
12156;DHT22;6141;49.092;8.516;2023-02-01T07:31:14;6.10;92.60
12156;DHT22;6141;49.092;8.516;2023-02-01T07:33:45;6.10;92.30
12156;DHT22;6141;49.092;8.516;2023-02-01T07:36:14;6.00;92.30
12156;DHT22;6141;49.092;8.516;2023-02-01T07:38:43;6.00;92.80
12156;DHT22;6141;49.092;8.516;2023-02-01T07:41:14;5.90;92.70
12156;DHT22;6141;49.092;8.516;2023-02-01T07:43:52;6.00;92.70
12156;DHT22;6141;49.092;8.516;2023-02-01T07:46:25;6.00;92.50
12156;DHT22;6141;49.092;8.516;2023-02-01T07:48:57;6.00;92.60
12156;DHT22;6141;49.092;8.516;2023-02-01T07:51:25;6.00;92.50
12156;DHT22;6141;49.092;8.516;2023-02-01T07:53:54;6.10;92.20
12156;DHT22;6141;49.092;8.516;2023-02-01T07:56:23;6.10;91.90
12156;DHT22;6141;49.092;8.516;2023-02-01T07:58:53;6.10;91.90
12156;DHT22;6141;49.092;8.516;2023-02-01T08:01:25;6.00;92.00
12156;DHT22;6141;49.092;8.516;2023-02-01T08:03:56;6.00;92.30
12156;DHT22;6141;49.092;8.516;2023-02-01T08:06:26;6.00;92.10
12156;DHT22;6141;49.092;8.516;2023-02-01T08:08:55;6.00;91.80
12156;DHT22;6141;49.092;8.516;2023-02-01T08:11:25;6.00;92.00
12156;DHT22;6141;49.092;8.516;2023-02-01T08:13:53;6.10;91.60
12156;DHT22;6141;49.092;8.516;2023-02-01T08:16:22;6.20;91.40
12156;DHT22;6141;49.092;8.516;2023-02-01T08:18:53;6.10;91.40
12156;DHT22;6141;49.092;8.516;2023-02-01T08:21:23;6.20;91.40
12156;DHT22;6141;49.092;8.516;2023-02-01T08:23:52;6.30;91.10
12156;DHT22;6141;49.092;8.516;2023-02-01T08:26:22;6.20;91.00
12156;DHT22;6141;49.092;8.516;2023-02-01T08:28:53;6.20;91.00
12156;DHT22;6141;49.092;8.516;2023-02-01T08:31:27;6.30;91.10
12156;DHT22;6141;49.092;8.516;2023-02-01T08:33:58;6.20;90.80
12156;DHT22;6141;49.092;8.516;2023-02-01T08:36:29;6.20;91.00
12156;DHT22;6141;49.092;8.516;2023-02-01T08:38:58;6.20;91.00
12156;DHT22;6141;49.092;8.516;2023-02-01T08:41:28;6.20;91.00
12156;DHT22;6141;49.092;8.516;2023-02-01T08:43:57;6.30;90.80
12156;DHT22;6141;49.092;8.516;2023-02-01T08:46:26;6.30;90.60
12156;DHT22;6141;49.092;8.516;2023-02-01T08:48:55;6.30;90.90
12156;DHT22;6141;49.092;8.516;2023-02-01T08:51:25;6.30;90.60
12156;DHT22;6141;49.092;8.516;2023-02-01T08:53:53;6.30;91.00
12156;DHT22;6141;49.092;8.516;2023-02-01T08:56:21;6.30;91.10
12156;DHT22;6141;49.092;8.516;2023-02-01T08:58:49;6.30;90.70
12156;DHT22;6141;49.092;8.516;2023-02-01T09:01:18;6.30;90.80
12156;DHT22;6141;49.092;8.516;2023-02-01T09:03:46;6.30;91.10
12156;DHT22;6141;49.092;8.516;2023-02-01T09:06:15;6.30;90.80
12156;DHT22;6141;49.092;8.516;2023-02-01T09:08:45;6.40;91.00
12156;DHT22;6141;49.092;8.516;2023-02-01T09:11:15;6.40;90.80
12156;DHT22;6141;49.092;8.516;2023-02-01T09:13:44;6.40;90.80
12156;DHT22;6141;49.092;8.516;2023-02-01T09:16:13;6.50;90.80
12156;DHT22;6141;49.092;8.516;2023-02-01T09:18:42;6.40;90.50
12156;DHT22;6141;49.092;8.516;2023-02-01T09:21:28;6.40;90.80
12156;DHT22;6141;49.092;8.516;2023-02-01T09:23:57;6.60;90.60
12156;DHT22;6141;49.092;8.516;2023-02-01T09:26:26;6.70;90.40
12156;DHT22;6141;49.092;8.516;2023-02-01T09:28:59;6.70;90.40
12156;DHT22;6141;49.092;8.516;2023-02-01T09:31:28;6.80;89.90
12156;DHT22;6141;49.092;8.516;2023-02-01T09:33:56;6.80;89.60
12156;DHT22;6141;49.092;8.516;2023-02-01T09:36:25;6.70;89.10
12156;DHT22;6141;49.092;8.516;2023-02-01T09:38:58;6.70;89.70
12156;DHT22;6141;49.092;8.516;2023-02-01T09:41:41;6.60;88.40
12156;DHT22;6141;49.092;8.516;2023-02-01T09:44:21;6.70;88.60
12156;DHT22;6141;49.092;8.516;2023-02-01T09:47:11;6.70;89.20
12156;DHT22;6141;49.092;8.516;2023-02-01T09:49:49;6.90;88.50
12156;DHT22;6141;49.092;8.516;2023-02-01T09:52:25;6.90;87.50
12156;DHT22;6141;49.092;8.516;2023-02-01T09:54:59;6.90;86.60
12156;DHT22;6141;49.092;8.516;2023-02-01T09:57:40;6.90;86.90
12156;DHT22;6141;49.092;8.516;2023-02-01T10:00:16;6.80;87.80
12156;DHT22;6141;49.092;8.516;2023-02-01T10:02:46;6.80;88.50
12156;DHT22;6141;49.092;8.516;2023-02-01T10:05:16;6.80;88.40
12156;DHT22;6141;49.092;8.516;2023-02-01T10:07:54;6.90;87.90
12156;DHT22;6141;49.092;8.516;2023-02-01T10:10:29;6.90;87.50
12156;DHT22;6141;49.092;8.516;2023-02-01T10:13:16;6.90;87.10
12156;DHT22;6141;49.092;8.516;2023-02-01T10:16:01;7.00;86.70
12156;DHT22;6141;49.092;8.516;2023-02-01T10:21:52;7.00;86.60
12156;DHT22;6141;49.092;8.516;2023-02-01T10:24:40;7.10;86.30
12156;DHT22;6141;49.092;8.516;2023-02-01T10:27:17;7.20;85.40
12156;DHT22;6141;49.092;8.516;2023-02-01T10:29:51;7.20;84.30
12156;DHT22;6141;49.092;8.516;2023-02-01T10:32:22;7.10;84.20
12156;DHT22;6141;49.092;8.516;2023-02-01T10:34:55;7.00;84.20
12156;DHT22;6141;49.092;8.516;2023-02-01T10:37:28;7.10;84.20
12156;DHT22;6141;49.092;8.516;2023-02-01T10:40:02;7.20;83.90
12156;DHT22;6141;49.092;8.516;2023-02-01T10:42:35;7.30;83.50
12156;DHT22;6141;49.092;8.516;2023-02-01T10:45:04;7.30;82.60
12156;DHT22;6141;49.092;8.516;2023-02-01T10:47:33;7.20;82.50
12156;DHT22;6141;49.092;8.516;2023-02-01T10:50:08;7.20;83.00
12156;DHT22;6141;49.092;8.516;2023-02-01T10:52:46;7.20;82.90
12156;DHT22;6141;49.092;8.516;2023-02-01T10:55:38;7.20;82.60
12156;DHT22;6141;49.092;8.516;2023-02-01T10:58:15;7.30;83.20
12156;DHT22;6141;49.092;8.516;2023-02-01T11:00:47;7.20;82.60
12156;DHT22;6141;49.092;8.516;2023-02-01T11:06:10;7.10;82.40
12156;DHT22;6141;49.092;8.516;2023-02-01T11:08:45;7.10;82.10
12156;DHT22;6141;49.092;8.516;2023-02-01T11:11:14;7.10;82.60
12156;DHT22;6141;49.092;8.516;2023-02-01T11:13:52;7.10;82.40
12156;DHT22;6141;49.092;8.516;2023-02-01T11:16:21;7.20;82.10
12156;DHT22;6141;49.092;8.516;2023-02-01T11:18:53;7.10;81.60
12156;DHT22;6141;49.092;8.516;2023-02-01T11:21:22;7.10;81.60
12156;DHT22;6141;49.092;8.516;2023-02-01T11:23:51;7.10;82.00
12156;DHT22;6141;49.092;8.516;2023-02-01T11:26:24;7.20;81.70
12156;DHT22;6141;49.092;8.516;2023-02-01T11:28:58;7.30;81.30
12156;DHT22;6141;49.092;8.516;2023-02-01T11:31:28;7.30;81.20
12156;DHT22;6141;49.092;8.516;2023-02-01T11:34:00;7.20;81.10
12156;DHT22;6141;49.092;8.516;2023-02-01T11:36:33;7.20;81.90
12156;DHT22;6141;49.092;8.516;2023-02-01T11:39:25;7.20;81.80
12156;DHT22;6141;49.092;8.516;2023-02-01T11:42:02;7.30;81.00
12156;DHT22;6141;49.092;8.516;2023-02-01T11:44:35;7.20;81.00
12156;DHT22;6141;49.092;8.516;2023-02-01T11:47:19;7.30;79.20
12156;DHT22;6141;49.092;8.516;2023-02-01T11:49:49;7.40;80.00
12156;DHT22;6141;49.092;8.516;2023-02-01T11:52:25;7.40;79.00
12156;DHT22;6141;49.092;8.516;2023-02-01T11:55:10;7.50;79.20
12156;DHT22;6141;49.092;8.516;2023-02-01T11:57:55;7.50;79.60
12156;DHT22;6141;49.092;8.516;2023-02-01T12:00:42;7.50;79.30
12156;DHT22;6141;49.092;8.516;2023-02-01T12:03:37;7.50;78.00
12156;DHT22;6141;49.092;8.516;2023-02-01T12:06:12;7.40;78.10
12156;DHT22;6141;49.092;8.516;2023-02-01T12:08:56;7.40;78.30
12156;DHT22;6141;49.092;8.516;2023-02-01T12:11:36;7.40;77.90
12156;DHT22;6141;49.092;8.516;2023-02-01T12:14:19;7.50;77.40
12156;DHT22;6141;49.092;8.516;2023-02-01T12:17:00;7.50;76.70
12156;DHT22;6141;49.092;8.516;2023-02-01T12:19:44;7.40;77.00
12156;DHT22;6141;49.092;8.516;2023-02-01T12:22:26;7.50;77.00
12156;DHT22;6141;49.092;8.516;2023-02-01T12:25:13;7.50;76.50
12156;DHT22;6141;49.092;8.516;2023-02-01T12:28:01;7.40;76.70
12156;DHT22;6141;49.092;8.516;2023-02-01T12:33:38;7.50;77.20
12156;DHT22;6141;49.092;8.516;2023-02-01T12:36:14;7.50;76.40
12156;DHT22;6141;49.092;8.516;2023-02-01T12:38:52;7.50;77.10
12156;DHT22;6141;49.092;8.516;2023-02-01T12:41:41;7.50;75.50
12156;DHT22;6141;49.092;8.516;2023-02-01T12:44:24;7.50;76.00
12156;DHT22;6141;49.092;8.516;2023-02-01T12:46:57;7.50;76.40
12156;DHT22;6141;49.092;8.516;2023-02-01T12:49:38;7.40;76.10
12156;DHT22;6141;49.092;8.516;2023-02-01T12:52:13;7.60;76.50
12156;DHT22;6141;49.092;8.516;2023-02-01T12:54:47;7.60;75.50
12156;DHT22;6141;49.092;8.516;2023-02-01T12:57:21;7.60;75.50
12156;DHT22;6141;49.092;8.516;2023-02-01T12:59:56;7.60;76.40
12156;DHT22;6141;49.092;8.516;2023-02-01T13:02:32;7.60;76.60
12156;DHT22;6141;49.092;8.516;2023-02-01T13:05:13;7.60;76.90
12156;DHT22;6141;49.092;8.516;2023-02-01T13:07:48;7.70;76.70
12156;DHT22;6141;49.092;8.516;2023-02-01T13:10:23;7.90;75.70
12156;DHT22;6141;49.092;8.516;2023-02-01T13:12:56;7.80;75.70
12156;DHT22;6141;49.092;8.516;2023-02-01T13:15:29;7.80;75.70
12156;DHT22;6141;49.092;8.516;2023-02-01T13:18:01;7.90;75.80
12156;DHT22;6141;49.092;8.516;2023-02-01T13:20:35;8.00;75.90
12156;DHT22;6141;49.092;8.516;2023-02-01T13:23:09;8.00;74.90
12156;DHT22;6141;49.092;8.516;2023-02-01T13:25:47;8.00;74.80
12156;DHT22;6141;49.092;8.516;2023-02-01T13:28:19;7.90;75.00
12156;DHT22;6141;49.092;8.516;2023-02-01T13:31:12;7.70;75.60
12156;DHT22;6141;49.092;8.516;2023-02-01T13:33:59;7.60;75.50
12156;DHT22;6141;49.092;8.516;2023-02-01T13:37:05;7.70;75.60
12156;DHT22;6141;49.092;8.516;2023-02-01T13:39:58;7.80;75.10
12156;DHT22;6141;49.092;8.516;2023-02-01T13:42:30;7.70;74.80
12156;DHT22;6141;49.092;8.516;2023-02-01T13:45:01;7.60;75.50
12156;DHT22;6141;49.092;8.516;2023-02-01T13:47:32;7.60;75.60
12156;DHT22;6141;49.092;8.516;2023-02-01T13:50:13;7.60;75.60
12156;DHT22;6141;49.092;8.516;2023-02-01T13:52:54;7.60;75.60
12156;DHT22;6141;49.092;8.516;2023-02-01T13:55:27;7.50;75.20
12156;DHT22;6141;49.092;8.516;2023-02-01T13:58:11;7.60;73.50
12156;DHT22;6141;49.092;8.516;2023-02-01T14:00:41;7.60;74.10
12156;DHT22;6141;49.092;8.516;2023-02-01T14:03:13;7.60;73.20
12156;DHT22;6141;49.092;8.516;2023-02-01T14:09:16;7.60;72.90
12156;DHT22;6141;49.092;8.516;2023-02-01T14:11:48;7.60;72.80
12156;DHT22;6141;49.092;8.516;2023-02-01T14:14:44;7.50;72.80
12156;DHT22;6141;49.092;8.516;2023-02-01T14:17:34;7.70;73.60
12156;DHT22;6141;49.092;8.516;2023-02-01T14:23:23;7.70;72.80
12156;DHT22;6141;49.092;8.516;2023-02-01T14:26:21;7.80;71.50
12156;DHT22;6141;49.092;8.516;2023-02-01T14:29:00;7.70;71.10
12156;DHT22;6141;49.092;8.516;2023-02-01T14:31:44;7.60;71.20
12156;DHT22;6141;49.092;8.516;2023-02-01T14:34:22;7.60;71.10
12156;DHT22;6141;49.092;8.516;2023-02-01T14:36:56;7.70;71.40
12156;DHT22;6141;49.092;8.516;2023-02-01T14:39:35;7.80;70.30
12156;DHT22;6141;49.092;8.516;2023-02-01T14:42:18;7.80;70.40
12156;DHT22;6141;49.092;8.516;2023-02-01T14:44:49;7.80;69.70
12156;DHT22;6141;49.092;8.516;2023-02-01T14:47:32;7.70;70.10
12156;DHT22;6141;49.092;8.516;2023-02-01T14:50:22;7.80;69.90
12156;DHT22;6141;49.092;8.516;2023-02-01T14:53:04;7.90;69.60
12156;DHT22;6141;49.092;8.516;2023-02-01T14:55:37;7.90;69.40
12156;DHT22;6141;49.092;8.516;2023-02-01T14:58:16;7.90;68.70
12156;DHT22;6141;49.092;8.516;2023-02-01T15:00:52;7.80;69.40
12156;DHT22;6141;49.092;8.516;2023-02-01T15:03:35;7.70;69.60
12156;DHT22;6141;49.092;8.516;2023-02-01T15:06:13;7.70;68.90
12156;DHT22;6141;49.092;8.516;2023-02-01T15:08:41;7.70;69.00
12156;DHT22;6141;49.092;8.516;2023-02-01T15:11:14;7.70;68.80
12156;DHT22;6141;49.092;8.516;2023-02-01T15:13:50;7.70;68.70
12156;DHT22;6141;49.092;8.516;2023-02-01T15:16:22;7.80;68.40
12156;DHT22;6141;49.092;8.516;2023-02-01T15:18:50;7.90;68.10
12156;DHT22;6141;49.092;8.516;2023-02-01T15:21:45;7.90;67.60
12156;DHT22;6141;49.092;8.516;2023-02-01T15:24:19;7.80;67.90
12156;DHT22;6141;49.092;8.516;2023-02-01T15:26:47;7.70;67.90
12156;DHT22;6141;49.092;8.516;2023-02-01T15:29:18;7.70;67.60
12156;DHT22;6141;49.092;8.516;2023-02-01T15:31:49;7.80;68.40
12156;DHT22;6141;49.092;8.516;2023-02-01T15:34:19;7.80;68.00
12156;DHT22;6141;49.092;8.516;2023-02-01T15:36:48;7.80;67.00
12156;DHT22;6141;49.092;8.516;2023-02-01T15:39:30;7.90;66.60
12156;DHT22;6141;49.092;8.516;2023-02-01T15:42:01;7.90;66.40
12156;DHT22;6141;49.092;8.516;2023-02-01T15:44:40;7.90;66.70
12156;DHT22;6141;49.092;8.516;2023-02-01T15:47:14;8.00;66.40
12156;DHT22;6141;49.092;8.516;2023-02-01T15:49:45;8.00;66.40
12156;DHT22;6141;49.092;8.516;2023-02-01T15:52:23;8.00;66.20
12156;DHT22;6141;49.092;8.516;2023-02-01T15:54:54;8.00;66.40
12156;DHT22;6141;49.092;8.516;2023-02-01T15:57:27;8.00;66.40
12156;DHT22;6141;49.092;8.516;2023-02-01T16:00:02;8.10;65.70
12156;DHT22;6141;49.092;8.516;2023-02-01T16:02:42;8.00;65.30
12156;DHT22;6141;49.092;8.516;2023-02-01T16:05:30;7.90;66.30
12156;DHT22;6141;49.092;8.516;2023-02-01T16:08:03;7.90;66.30
12156;DHT22;6141;49.092;8.516;2023-02-01T16:10:39;7.90;66.30
12156;DHT22;6141;49.092;8.516;2023-02-01T16:13:07;8.00;66.40
12156;DHT22;6141;49.092;8.516;2023-02-01T16:15:37;8.10;65.00
12156;DHT22;6141;49.092;8.516;2023-02-01T16:18:06;8.10;64.60
12156;DHT22;6141;49.092;8.516;2023-02-01T16:20:35;7.90;64.80
12156;DHT22;6141;49.092;8.516;2023-02-01T16:23:04;8.00;65.40
12156;DHT22;6141;49.092;8.516;2023-02-01T16:25:33;7.90;65.30
12156;DHT22;6141;49.092;8.516;2023-02-01T16:28:02;7.90;66.10
12156;DHT22;6141;49.092;8.516;2023-02-01T16:30:31;7.80;65.30
12156;DHT22;6141;49.092;8.516;2023-02-01T16:33:02;7.80;66.20
12156;DHT22;6141;49.092;8.516;2023-02-01T16:35:34;7.80;65.60
12156;DHT22;6141;49.092;8.516;2023-02-01T16:38:04;7.70;66.20
12156;DHT22;6141;49.092;8.516;2023-02-01T16:40:35;7.60;66.10
12156;DHT22;6141;49.092;8.516;2023-02-01T16:43:11;7.70;66.20
12156;DHT22;6141;49.092;8.516;2023-02-01T16:45:40;7.70;66.10
12156;DHT22;6141;49.092;8.516;2023-02-01T16:48:19;7.80;66.20
12156;DHT22;6141;49.092;8.516;2023-02-01T16:50:52;7.80;66.20
12156;DHT22;6141;49.092;8.516;2023-02-01T16:53:22;7.80;65.80
12156;DHT22;6141;49.092;8.516;2023-02-01T16:55:51;7.90;65.20
12156;DHT22;6141;49.092;8.516;2023-02-01T16:58:20;8.00;65.60
12156;DHT22;6141;49.092;8.516;2023-02-01T17:00:48;8.00;65.30
12156;DHT22;6141;49.092;8.516;2023-02-01T17:03:19;8.00;65.10
12156;DHT22;6141;49.092;8.516;2023-02-01T17:05:50;7.90;65.20